createdAt,value
2017-10-03T00:01:04.761Z,34.03
2017-10-03T00:03:34.224Z,33.90
2017-10-03T00:06:03.989Z,33.17
2017-10-03T00:08:33.302Z,32.20
2017-10-03T00:11:02.772Z,34.80
2017-10-03T00:13:32.533Z,32.45
2017-10-03T00:16:02.279Z,38.25
2017-10-03T00:18:32.070Z,36.40
2017-10-03T00:21:01.834Z,32.70
2017-10-03T00:23:31.581Z,34.90
2017-10-03T00:26:01.375Z,40.50
2017-10-03T00:28:31.132Z,39.83
2017-10-03T00:31:00.928Z,38.38
2017-10-03T00:33:30.703Z,38.53
2017-10-03T00:35:59.980Z,33.10
2017-10-03T00:38:29.436Z,33.10
2017-10-03T00:40:58.922Z,36.90
2017-10-03T00:43:28.379Z,39.10
2017-10-03T00:45:57.852Z,40.20
2017-10-03T00:48:27.331Z,34.70
2017-10-03T00:50:56.465Z,39.23
2017-10-03T00:53:26.025Z,37.60
2017-10-03T00:55:55.169Z,42.23
2017-10-03T00:58:24.285Z,36.27
2017-10-03T01:00:53.641Z,33.87
2017-10-03T01:03:23.508Z,34.90
2017-10-03T01:05:53.059Z,32.60
2017-10-03T01:08:22.524Z,30.77
2017-10-03T01:10:51.456Z,31.87
2017-10-03T01:13:20.752Z,32.40
2017-10-03T01:15:50.379Z,33.43
2017-10-03T01:18:19.681Z,29.80
2017-10-03T01:20:48.802Z,33.70
2017-10-03T01:23:18.068Z,32.37
2017-10-03T01:25:47.513Z,29.52
2017-10-03T01:28:17.005Z,31.13
2017-10-03T01:30:46.496Z,30.00
2017-10-03T01:33:16.289Z,27.85
2017-10-03T01:35:46.069Z,30.23
2017-10-03T01:38:15.544Z,35.80
2017-10-03T01:40:45.060Z,36.83
2017-10-03T01:43:14.827Z,34.08
2017-10-03T01:45:44.579Z,31.10
2017-10-03T01:48:14.345Z,30.75
2017-10-03T01:50:43.812Z,34.63
2017-10-03T01:53:13.314Z,34.53
2017-10-03T01:55:43.065Z,32.63
2017-10-03T01:58:12.358Z,30.40
2017-10-03T02:00:41.696Z,33.50
2017-10-03T02:03:11.229Z,26.70
2017-10-03T02:05:40.994Z,20.48
2017-10-03T02:08:10.447Z,31.13
2017-10-03T02:10:39.929Z,29.07
2017-10-03T02:13:09.677Z,27.30
2017-10-03T02:15:38.940Z,29.60
2017-10-03T02:18:08.389Z,28.10
2017-10-03T02:20:37.676Z,26.27
2017-10-03T02:23:07.133Z,26.60
2017-10-03T02:25:36.420Z,24.30
2017-10-03T02:28:05.886Z,22.93
2017-10-03T02:30:35.361Z,25.67
2017-10-03T02:33:04.829Z,22.83
2017-10-03T02:35:34.322Z,24.37
2017-10-03T02:38:04.035Z,19.27
2017-10-03T02:40:33.494Z,22.60
2017-10-03T02:43:02.962Z,21.03
2017-10-03T02:45:32.498Z,20.90
2017-10-03T02:48:02.147Z,21.03
2017-10-03T02:50:31.443Z,19.77
2017-10-03T02:53:00.730Z,21.87
2017-10-03T02:55:30.189Z,19.30
2017-10-03T02:57:59.488Z,18.90
2017-10-03T03:00:28.974Z,18.90
2017-10-03T03:02:58.292Z,18.63
2017-10-03T03:05:27.763Z,20.23
2017-10-03T03:07:57.243Z,19.40
2017-10-03T03:10:26.725Z,19.97
2017-10-03T03:12:56.188Z,21.37
2017-10-03T03:15:25.677Z,26.10
2017-10-03T03:17:55.169Z,21.07
2017-10-03T03:20:24.631Z,18.70
2017-10-03T03:22:54.100Z,20.00
2017-10-03T03:25:23.616Z,20.93
2017-10-03T03:27:53.075Z,20.77
2017-10-03T03:30:22.360Z,26.20
2017-10-03T03:32:51.823Z,20.63
2017-10-03T03:35:21.308Z,16.97
2017-10-03T03:37:50.605Z,22.83
2017-10-03T03:40:20.097Z,25.00
2017-10-03T03:42:49.556Z,24.27
2017-10-03T03:45:19.058Z,19.33
2017-10-03T03:47:48.566Z,23.30
2017-10-03T03:50:17.828Z,20.07
2017-10-03T03:52:47.394Z,24.17
2017-10-03T03:55:16.694Z,22.47
2017-10-03T03:57:46.162Z,20.83
2017-10-03T04:00:15.649Z,23.83
2017-10-03T04:02:44.988Z,20.70
2017-10-03T04:05:14.462Z,23.07
2017-10-03T04:07:43.937Z,24.83
2017-10-03T04:10:13.403Z,20.47
2017-10-03T04:12:42.900Z,22.93
2017-10-03T04:15:12.420Z,25.63
2017-10-03T04:17:42.401Z,23.73
2017-10-03T04:20:11.693Z,21.30
2017-10-03T04:22:41.011Z,21.30
2017-10-03T04:25:10.640Z,26.77
2017-10-03T04:27:40.111Z,21.40
2017-10-03T04:30:09.589Z,21.97
2017-10-03T04:32:39.084Z,19.97
2017-10-03T04:35:08.568Z,24.93
2017-10-03T04:37:38.097Z,22.27
2017-10-03T04:40:07.939Z,23.53
2017-10-03T04:42:37.439Z,21.47
2017-10-03T04:45:06.978Z,20.70
2017-10-03T04:47:36.822Z,20.93
2017-10-03T04:50:06.298Z,27.37
2017-10-03T04:52:35.794Z,23.63
2017-10-03T04:55:05.287Z,25.00
2017-10-03T04:57:34.755Z,27.97
2017-10-03T05:00:04.227Z,22.40
2017-10-03T05:02:33.687Z,23.30
2017-10-03T05:05:03.140Z,24.30
2017-10-03T05:07:33.008Z,23.80
2017-10-03T05:10:02.571Z,24.90
2017-10-03T05:12:32.898Z,23.10
2017-10-03T05:15:02.591Z,23.27
2017-10-03T05:17:31.890Z,20.87
2017-10-03T05:20:01.939Z,19.20
2017-10-03T05:22:31.626Z,21.27
2017-10-03T05:25:01.071Z,18.50
2017-10-03T05:27:30.578Z,21.07
2017-10-03T05:30:00.058Z,21.57
2017-10-03T05:32:29.586Z,23.30
2017-10-03T05:34:59.371Z,19.70
2017-10-03T05:37:28.837Z,19.10
2017-10-03T05:39:58.306Z,21.60
2017-10-03T05:42:28.146Z,27.20
2017-10-03T05:44:57.668Z,25.37
2017-10-03T05:47:27.141Z,24.77
2017-10-03T05:49:56.664Z,20.37
2017-10-03T05:52:26.185Z,20.27
2017-10-03T05:54:55.654Z,17.70
2017-10-03T05:57:25.124Z,17.73
2017-10-03T05:59:54.593Z,18.43
2017-10-03T06:02:24.052Z,26.20
2017-10-03T06:04:53.584Z,22.63
2017-10-03T06:07:23.067Z,27.33
2017-10-03T06:09:52.550Z,18.40
2017-10-03T06:12:22.055Z,20.53
2017-10-03T06:14:51.702Z,21.93
2017-10-03T06:17:21.203Z,23.57
2017-10-03T06:19:50.492Z,21.43
2017-10-03T06:22:20.010Z,21.80
2017-10-03T06:24:49.504Z,16.80
2017-10-03T06:27:18.978Z,21.30
2017-10-03T06:29:48.771Z,18.73
2017-10-03T06:32:18.228Z,16.30
2017-10-03T06:34:47.745Z,20.13
2017-10-03T06:37:17.278Z,25.17
2017-10-03T06:39:46.751Z,28.93
2017-10-03T06:42:16.324Z,32.67
2017-10-03T06:44:46.125Z,28.53
2017-10-03T06:47:15.601Z,24.93
2017-10-03T06:49:45.111Z,29.30
2017-10-03T06:52:14.573Z,21.97
2017-10-03T06:54:43.833Z,25.97
2017-10-03T06:57:14.335Z,21.60
2017-10-03T06:59:44.428Z,22.40
2017-10-03T07:02:13.921Z,25.33
2017-10-03T07:04:43.380Z,21.57
2017-10-03T07:07:12.855Z,22.37
2017-10-03T07:09:42.341Z,21.20
2017-10-03T07:12:11.820Z,27.60
2017-10-03T07:14:41.292Z,28.40
2017-10-03T07:17:10.789Z,21.77
2017-10-03T07:19:40.292Z,24.77
2017-10-03T07:22:09.773Z,25.80
2017-10-03T07:24:39.254Z,24.70
2017-10-03T07:27:08.721Z,19.10
2017-10-03T07:29:38.253Z,24.10
2017-10-03T07:32:07.769Z,24.10
2017-10-03T07:34:37.213Z,16.50
2017-10-03T07:37:06.688Z,16.00
2017-10-03T07:39:36.165Z,16.93
2017-10-03T07:42:05.624Z,15.40
2017-10-03T07:44:35.096Z,14.07
2017-10-03T07:47:04.556Z,12.83
2017-10-03T07:49:34.024Z,12.47
2017-10-03T07:52:03.294Z,12.63
2017-10-03T07:54:32.806Z,15.73
2017-10-03T07:57:02.406Z,10.37
2017-10-03T07:59:31.884Z,13.47
2017-10-03T08:02:01.367Z,8.70
2017-10-03T08:04:30.820Z,11.20
2017-10-03T08:07:00.280Z,8.47
2017-10-03T08:09:29.563Z,11.17
2017-10-03T08:11:58.885Z,11.60
2017-10-03T08:14:28.463Z,11.47
2017-10-03T08:16:57.953Z,13.53
2017-10-03T08:19:27.274Z,13.83
2017-10-03T08:21:56.562Z,17.03
2017-10-03T08:24:25.854Z,15.90
2017-10-03T08:26:55.314Z,17.67
2017-10-03T08:29:24.812Z,20.83
2017-10-03T08:31:54.277Z,18.83
2017-10-03T08:34:23.752Z,15.77
2017-10-03T08:36:53.245Z,14.80
2017-10-03T08:39:23.093Z,11.57
2017-10-03T08:41:52.735Z,16.63
2017-10-03T08:44:22.220Z,27.83
2017-10-03T08:46:51.701Z,15.87
2017-10-03T08:49:21.182Z,15.87
2017-10-03T08:51:50.649Z,19.73
2017-10-03T08:54:20.212Z,19.23
2017-10-03T08:56:49.767Z,18.67
2017-10-03T08:59:19.328Z,17.07
2017-10-03T09:01:48.776Z,12.70
2017-10-03T09:04:18.326Z,16.07
2017-10-03T09:06:47.807Z,15.10
2017-10-03T09:09:17.302Z,14.50
2017-10-03T09:11:50.821Z,14.30
2017-10-03T09:14:20.315Z,12.40
2017-10-03T09:16:49.764Z,11.90
2017-10-03T09:19:19.230Z,12.73
2017-10-03T09:21:48.682Z,14.57
2017-10-03T09:24:18.158Z,15.43
2017-10-03T09:26:47.649Z,25.90
2017-10-03T09:29:17.151Z,16.87
2017-10-03T09:31:46.434Z,17.13
2017-10-03T09:34:15.915Z,12.10
2017-10-03T09:36:45.440Z,9.70
2017-10-03T09:39:15.507Z,11.57
2017-10-03T09:41:45.380Z,6.83
2017-10-03T09:44:14.843Z,8.30
2017-10-03T09:46:44.145Z,6.47
2017-10-03T09:49:13.461Z,5.30
2017-10-03T09:51:42.731Z,4.83
2017-10-03T09:54:12.026Z,5.30
2017-10-03T09:56:41.488Z,9.50
2017-10-03T09:59:10.994Z,2.40
2017-10-03T10:01:40.438Z,5.23
2017-10-03T10:04:09.892Z,3.90
2017-10-03T10:06:39.360Z,1.47
2017-10-03T10:09:08.805Z,1.50
2017-10-03T10:11:38.328Z,1.97
2017-10-03T10:14:07.918Z,1.53
2017-10-03T10:16:37.385Z,1.00
2017-10-03T10:19:06.858Z,0.97
2017-10-03T10:21:36.334Z,1.30
2017-10-03T10:24:05.828Z,1.00
2017-10-03T10:26:35.321Z,1.90
2017-10-03T10:29:04.887Z,3.93
2017-10-03T10:31:34.331Z,0.73
2017-10-03T10:34:03.828Z,2.20
2017-10-03T10:36:33.281Z,0.80
2017-10-03T10:39:02.852Z,1.23
2017-10-03T10:41:32.355Z,1.80
2017-10-03T10:44:01.781Z,1.27
2017-10-03T10:46:31.232Z,2.83
2017-10-03T10:49:01.810Z,0.80
2017-10-03T10:51:31.333Z,0.80
2017-10-03T10:54:00.796Z,1.47
2017-10-03T10:56:30.498Z,0.90
2017-10-03T10:59:00.225Z,0.90
2017-10-03T11:01:29.691Z,0.83
2017-10-03T11:03:59.151Z,1.23
2017-10-03T11:06:28.606Z,1.00
2017-10-03T11:08:58.075Z,2.30
2017-10-03T11:11:27.533Z,2.50
2017-10-03T11:13:56.993Z,0.97
2017-10-03T11:16:26.467Z,1.17
2017-10-03T11:18:55.930Z,1.30
2017-10-03T11:21:25.517Z,0.90
2017-10-03T11:24:06.624Z,3.22
2017-10-03T11:26:36.172Z,1.00
2017-10-03T11:29:05.945Z,1.27
2017-10-03T11:31:35.690Z,1.33
2017-10-03T11:34:05.444Z,1.45
2017-10-03T11:36:35.189Z,1.90
2017-10-03T11:39:04.051Z,1.33
2017-10-03T11:41:33.811Z,3.47
2017-10-03T11:44:03.621Z,0.98
2017-10-03T11:46:33.432Z,5.30
2017-10-03T11:49:14.343Z,1.60
2017-10-03T11:51:49.983Z,5.30
2017-10-03T11:54:19.737Z,1.30
2017-10-03T11:56:49.513Z,2.35
2017-10-03T11:59:19.274Z,2.08
2017-10-03T12:01:49.701Z,0.98
2017-10-03T12:04:19.444Z,1.55
2017-10-03T12:06:49.189Z,1.10
2017-10-03T12:09:18.930Z,1.15
2017-10-03T12:11:48.519Z,1.60
2017-10-03T12:14:18.127Z,1.55
2017-10-03T12:16:47.923Z,6.40
2017-10-03T12:19:17.724Z,1.10
2017-10-03T12:21:47.482Z,0.95
2017-10-03T12:24:17.239Z,1.00
2017-10-03T12:26:46.985Z,1.37
2017-10-03T12:29:16.837Z,0.90
2017-10-03T12:31:46.579Z,0.95
2017-10-03T12:34:16.350Z,0.90
2017-10-03T12:36:47.553Z,1.90
2017-10-03T12:39:17.336Z,1.23
2017-10-03T12:41:47.210Z,0.82
2017-10-03T12:44:17.040Z,1.08
2017-10-03T12:46:46.635Z,0.93
2017-10-03T12:49:16.399Z,0.80
2017-10-03T12:51:46.160Z,0.80
2017-10-03T12:54:15.941Z,0.90
2017-10-03T12:56:48.288Z,3.37
2017-10-03T12:59:18.014Z,0.90
2017-10-03T13:01:47.862Z,0.90
2017-10-03T13:04:17.625Z,1.23
2017-10-03T13:06:47.362Z,2.25
2017-10-03T13:09:17.107Z,2.17
2017-10-03T13:11:47.641Z,1.02
2017-10-03T13:14:17.618Z,0.93
2017-10-03T13:16:47.381Z,1.20
2017-10-03T13:19:17.140Z,0.85
2017-10-03T13:21:46.908Z,1.98
2017-10-03T13:24:16.509Z,0.90
2017-10-03T13:26:46.259Z,0.90
2017-10-03T13:29:16.018Z,1.02
2017-10-03T13:31:45.812Z,1.70
2017-10-03T13:34:15.614Z,1.15
2017-10-03T13:36:45.103Z,1.20
2017-10-03T13:39:14.552Z,1.23
2017-10-03T13:41:48.055Z,1.53
2017-10-03T13:44:17.562Z,9.27
2017-10-03T13:46:47.057Z,0.80
2017-10-03T13:49:16.521Z,2.00
2017-10-03T13:51:45.972Z,0.90
2017-10-03T13:54:15.437Z,3.77
2017-10-03T13:56:44.976Z,0.93
2017-10-03T13:59:14.321Z,3.50
2017-10-03T14:01:43.746Z,1.93
2017-10-03T14:04:13.205Z,1.33
2017-10-03T14:06:42.720Z,1.10
2017-10-03T14:09:12.175Z,1.33
2017-10-03T14:11:41.691Z,1.37
2017-10-03T14:14:11.136Z,1.00
2017-10-03T14:16:40.904Z,1.10
2017-10-03T14:19:10.456Z,0.80
2017-10-03T14:21:39.943Z,1.80
2017-10-03T14:24:09.450Z,1.47
2017-10-03T14:26:39.031Z,1.83
2017-10-03T14:29:08.547Z,1.00
2017-10-03T14:31:38.062Z,1.67
2017-10-03T14:34:07.556Z,1.47
2017-10-03T14:36:37.013Z,1.63
2017-10-03T14:39:06.484Z,1.10
2017-10-03T14:41:36.029Z,1.33
2017-10-03T14:44:05.529Z,1.77
2017-10-03T14:46:35.203Z,1.20
2017-10-03T14:49:04.537Z,1.20
2017-10-03T14:51:33.974Z,1.27
2017-10-03T14:54:03.479Z,1.43
2017-10-03T14:56:32.932Z,1.53
2017-10-03T14:59:02.409Z,1.50
2017-10-03T15:01:31.957Z,1.30
2017-10-03T15:04:01.400Z,2.40
2017-10-03T15:06:31.119Z,1.60
2017-10-03T15:09:01.157Z,1.20
2017-10-03T15:11:30.450Z,1.40
2017-10-03T15:14:00.892Z,1.50
2017-10-03T15:16:30.345Z,2.80
2017-10-03T15:18:59.800Z,1.70
2017-10-03T15:21:30.348Z,3.03
2017-10-03T15:23:59.900Z,2.40
2017-10-03T15:26:29.367Z,6.00
2017-10-03T15:28:58.856Z,1.73
2017-10-03T15:31:28.468Z,1.60
2017-10-03T15:33:57.942Z,1.50
2017-10-03T15:36:27.456Z,2.60
2017-10-03T15:38:56.920Z,1.10
2017-10-03T15:41:26.170Z,1.70
2017-10-03T15:43:55.616Z,1.50
2017-10-03T15:46:25.115Z,3.47
2017-10-03T15:48:54.555Z,1.43
2017-10-03T15:51:24.029Z,2.40
2017-10-03T15:53:53.479Z,1.57
2017-10-03T15:56:22.930Z,2.50
2017-10-03T15:58:52.390Z,2.13
2017-10-03T16:01:21.917Z,1.77
2017-10-03T16:03:51.878Z,1.80
2017-10-03T16:06:21.378Z,4.60
2017-10-03T16:08:51.183Z,1.90
2017-10-03T16:11:20.973Z,3.43
2017-10-03T16:13:50.426Z,2.73
2017-10-03T16:16:20.168Z,7.50
2017-10-03T16:18:49.906Z,2.35
2017-10-03T16:21:19.669Z,2.30
2017-10-03T16:23:49.757Z,5.30
2017-10-03T16:26:19.516Z,2.00
2017-10-03T16:28:49.263Z,1.80
2017-10-03T16:31:19.018Z,2.37
2017-10-03T16:33:48.723Z,2.20
2017-10-03T16:36:18.504Z,2.20
2017-10-03T16:38:48.228Z,2.22
2017-10-03T16:41:17.991Z,4.05
2017-10-03T16:43:47.723Z,2.75
2017-10-03T16:46:17.529Z,2.50
2017-10-03T16:48:52.200Z,3.80
2017-10-03T16:51:21.950Z,2.95
2017-10-03T16:53:51.737Z,2.83
2017-10-03T16:56:21.469Z,2.97
2017-10-03T16:58:51.214Z,4.43
2017-10-03T17:01:21.060Z,3.22
2017-10-03T17:03:50.800Z,3.40
2017-10-03T17:06:20.549Z,2.62
2017-10-03T17:08:50.839Z,2.55
2017-10-03T17:11:20.577Z,3.17
2017-10-03T17:13:50.320Z,2.58
2017-10-03T17:16:20.071Z,2.92
2017-10-03T17:18:49.814Z,3.10
2017-10-03T17:21:19.552Z,3.25
2017-10-03T17:23:49.317Z,3.70
2017-10-03T17:26:19.099Z,3.50
2017-10-03T17:28:49.648Z,3.00
2017-10-03T17:31:19.390Z,3.42
2017-10-03T17:33:49.237Z,3.17
2017-10-03T17:36:18.995Z,4.07
2017-10-03T17:38:48.728Z,3.78
2017-10-03T17:41:18.609Z,3.80
2017-10-03T17:43:48.353Z,7.65
2017-10-03T17:46:18.135Z,3.17
2017-10-03T17:48:47.921Z,8.13
2017-10-03T17:51:17.816Z,4.18
2017-10-03T17:53:47.604Z,2.97
2017-10-03T17:56:17.342Z,3.30
2017-10-03T17:58:47.166Z,5.35
2017-10-03T18:01:17.462Z,6.05
2017-10-03T18:03:47.283Z,4.00
2017-10-03T18:06:17.252Z,3.60
2017-10-03T18:08:47.063Z,5.68
2017-10-03T18:11:16.830Z,4.50
2017-10-03T18:13:46.560Z,3.70
2017-10-03T18:16:16.580Z,4.00
2017-10-03T18:18:46.423Z,4.35
2017-10-03T18:21:16.168Z,4.75
2017-10-03T18:23:45.901Z,4.82
2017-10-03T18:26:15.661Z,5.10
2017-10-03T18:28:45.525Z,5.03
2017-10-03T18:31:16.040Z,6.35
2017-10-03T18:33:45.774Z,5.15
2017-10-03T18:36:15.571Z,9.10
2017-10-03T18:38:45.314Z,11.02
2017-10-03T18:41:15.084Z,5.25
2017-10-03T18:43:44.500Z,5.87
2017-10-03T18:46:14.269Z,4.85
2017-10-03T18:48:44.041Z,7.40
2017-10-03T18:51:13.816Z,4.47
2017-10-03T18:53:43.569Z,9.27
2017-10-03T18:56:13.682Z,6.43
2017-10-03T18:58:43.444Z,5.43
2017-10-03T19:01:13.420Z,5.78
2017-10-03T19:03:43.272Z,5.30
2017-10-03T19:06:12.839Z,5.43
2017-10-03T19:08:42.582Z,6.32
2017-10-03T19:11:12.434Z,5.47
2017-10-03T19:13:42.169Z,8.75
2017-10-03T19:16:13.650Z,6.93
2017-10-03T19:18:43.722Z,7.35
2017-10-03T19:21:13.775Z,7.65
2017-10-03T19:23:43.568Z,5.55
2017-10-03T19:26:13.373Z,7.62
2017-10-03T19:28:43.826Z,6.62
2017-10-03T19:31:14.250Z,11.90
2017-10-03T19:33:44.721Z,10.43
2017-10-03T19:36:14.520Z,7.90
2017-10-03T19:38:45.088Z,9.38
2017-10-03T19:41:15.737Z,10.30
2017-10-03T19:43:47.470Z,7.10
2017-10-03T19:46:17.791Z,8.00
2017-10-03T19:48:47.677Z,7.20
2017-10-03T19:51:17.598Z,8.73
2017-10-03T19:53:47.326Z,8.82
2017-10-03T19:56:17.202Z,7.72
2017-10-03T19:58:47.194Z,6.62
2017-10-03T20:01:16.966Z,8.30
2017-10-03T20:03:46.750Z,12.25
2017-10-03T20:06:16.485Z,7.62
2017-10-03T20:08:46.204Z,7.60
2017-10-03T20:11:15.955Z,8.38
2017-10-03T20:13:45.722Z,17.00
2017-10-03T20:16:16.477Z,8.00
2017-10-03T20:18:47.328Z,7.32
2017-10-03T20:21:19.558Z,7.90
2017-10-03T20:23:51.069Z,7.40
2017-10-03T20:26:21.941Z,8.48
2017-10-03T20:28:52.838Z,10.00
2017-10-03T20:31:23.087Z,9.60
2017-10-03T20:33:53.349Z,9.98
2017-10-03T20:36:23.621Z,7.32
2017-10-03T20:38:54.712Z,7.12
2017-10-03T20:41:25.145Z,9.30
2017-10-03T20:43:55.018Z,10.18
2017-10-03T20:46:24.561Z,8.88
2017-10-03T20:48:54.282Z,6.75
2017-10-03T20:51:24.021Z,10.35
2017-10-03T20:53:53.912Z,7.95
2017-10-03T20:56:23.698Z,7.20
2017-10-03T20:58:53.283Z,7.25
2017-10-03T21:01:23.064Z,14.18
2017-10-03T21:03:52.859Z,7.22
2017-10-03T21:06:22.461Z,9.85
2017-10-03T21:08:52.229Z,7.60
2017-10-03T21:11:22.066Z,9.88
2017-10-03T21:13:51.808Z,8.40
2017-10-03T21:16:21.532Z,8.88
2017-10-03T21:18:51.294Z,8.38
2017-10-03T21:21:21.100Z,12.48
2017-10-03T21:23:50.697Z,9.38
2017-10-03T21:26:20.461Z,6.97
2017-10-03T21:28:50.230Z,8.95
2017-10-03T21:31:20.015Z,12.45
2017-10-03T21:33:49.806Z,7.75
2017-10-03T21:36:19.524Z,10.68
2017-10-03T21:38:49.345Z,11.73
2017-10-03T21:41:18.825Z,7.55
2017-10-03T21:43:48.206Z,9.88
2017-10-03T21:46:17.737Z,9.48
2017-10-03T21:48:47.484Z,11.48
2017-10-03T21:51:20.627Z,10.45
2017-10-03T21:53:50.440Z,13.43
2017-10-03T21:56:20.183Z,8.98
2017-10-03T21:58:49.947Z,12.80
2017-10-03T22:01:19.778Z,12.60
2017-10-03T22:03:50.085Z,9.73
2017-10-03T22:06:20.117Z,9.20
2017-10-03T22:08:49.869Z,10.18
2017-10-03T22:11:19.709Z,13.48
2017-10-03T22:13:49.551Z,8.32
2017-10-03T22:16:19.297Z,8.57
2017-10-03T22:18:49.036Z,8.40
2017-10-03T22:21:18.778Z,10.15
2017-10-03T22:23:48.541Z,12.55
2017-10-03T22:26:18.288Z,11.52
2017-10-03T22:28:48.057Z,7.93
2017-10-03T22:31:17.790Z,12.65
2017-10-03T22:33:47.596Z,8.75
2017-10-03T22:36:17.602Z,8.77
2017-10-03T22:38:47.609Z,15.32
2017-10-03T22:41:21.422Z,13.35
2017-10-03T22:43:51.206Z,11.38
2017-10-03T22:46:20.975Z,20.08
2017-10-03T22:48:50.957Z,13.10
2017-10-03T22:51:26.209Z,12.35
2017-10-03T22:53:56.046Z,7.90
2017-10-03T22:56:25.800Z,12.68
2017-10-03T22:58:55.544Z,8.07
2017-10-03T23:01:25.309Z,6.80
2017-10-03T23:03:54.891Z,12.45
2017-10-03T23:06:24.649Z,9.23
2017-10-03T23:08:54.206Z,9.43
2017-10-03T23:11:23.984Z,8.90
2017-10-03T23:13:53.735Z,8.75
2017-10-03T23:16:23.510Z,9.63
2017-10-03T23:18:53.236Z,8.70
2017-10-03T23:21:23.029Z,15.27
2017-10-03T23:23:52.791Z,11.35
2017-10-03T23:26:22.528Z,12.15
2017-10-03T23:28:52.297Z,12.23
2017-10-03T23:31:22.186Z,12.88
2017-10-03T23:33:51.961Z,10.32
2017-10-03T23:36:21.724Z,9.10
2017-10-03T23:38:51.498Z,10.35
2017-10-03T23:41:21.250Z,8.48
2017-10-03T23:43:51.001Z,14.50
2017-10-03T23:46:20.762Z,15.13
2017-10-03T23:48:50.501Z,11.98
2017-10-03T23:51:20.309Z,11.00
2017-10-03T23:53:50.069Z,8.85
2017-10-03T23:56:19.807Z,11.23
2017-10-03T23:58:49.558Z,10.18
